Time;durP1;ratioP1;P1;durP2;ratioP2;P2;SDS_P1;SDS_P2;PMS_P1;PMS_P2;Temp;Humidity;BMP_temperature;BMP_pressure;BME280_temperature;BME280_humidity;BME280_pressure;Samples;Min_cycle;Max_cycle;Signal;HPM_P1;HPM_P2
2023/07/02 00:02:16;;;;;;;16.23;13.05;;;;;;;;;;5055826;28;20036;-60
2023/07/02 00:04:43;;;;;;;13.00;11.63;;;;;;;;;;5073649;28;20081;-60
2023/07/02 00:07:14;;;;;;;12.35;11.05;;;;;;;;;;5110543;23;20060;-62
2023/07/02 00:09:40;;;;;;;14.10;11.52;;;;;;;;;;5011953;28;20046;-62
2023/07/02 00:12:05;;;;;;;13.18;10.57;;;;;;;;;;4995984;28;20474;-63
2023/07/02 00:14:32;;;;;;;11.75;10.52;;;;;;;;;;5013608;28;20022;-63
2023/07/02 00:16:57;;;;;;;13.07;11.63;;;;;;;;;;4995917;28;20034;-63
2023/07/02 00:19:23;;;;;;;13.55;11.43;;;;;;;;;;4995988;28;20028;-63
2023/07/02 00:21:48;;;;;;;12.77;11.50;;;;;;;;;;5013448;28;20080;-63
2023/07/02 00:24:15;;;;;;;13.15;11.65;;;;;;;;;;4995689;28;20389;-63
2023/07/02 00:26:41;;;;;;;13.82;12.30;;;;;;;;;;5013581;28;20034;-63
2023/07/02 00:29:10;;;;;;;14.25;12.73;;;;;;;;;;5017477;28;20105;-63
2023/07/02 00:31:36;;;;;;;15.27;12.10;;;;;;;;;;5017321;28;20064;-63
2023/07/02 00:34:01;;;;;;;12.75;11.45;;;;;;;;;;5017198;28;20117;-63
2023/07/02 00:36:27;;;;;;;15.35;12.57;;;;;;;;;;5017215;28;20037;-63
2023/07/02 00:38:53;;;;;;;13.85;12.18;;;;;;;;;;4999473;28;20040;-63
2023/07/02 00:41:31;;;;;;;17.15;12.60;;;;;;;;;;5023703;23;20116;-60
2023/07/02 00:43:57;;;;;;;15.52;12.25;;;;;;;;;;5068961;23;20150;-62
2023/07/02 00:46:25;;;;;;;13.13;11.43;;;;;;;;;;5097002;28;20102;-63
2023/07/02 00:48:54;;;;;;;15.00;11.75;;;;;;;;;;5078758;28;20084;-63
2023/07/02 00:51:22;;;;;;;14.23;12.05;;;;;;;;;;5062233;28;20028;-60
2023/07/02 00:54:24;;;;;;;14.23;12.10;;;;;;;;;;5114535;22;20076;-61
2023/07/02 00:56:50;;;;;;;13.77;12.27;;;;;;;;;;5015199;28;20120;-60
2023/07/02 00:59:15;;;;;;;14.15;12.70;;;;;;;;;;5016781;28;20113;-60
2023/07/02 01:01:41;;;;;;;13.82;11.55;;;;;;;;;;5016680;28;20061;-60
2023/07/02 01:04:07;;;;;;;12.85;11.45;;;;;;;;;;5016595;28;20033;-60
2023/07/02 01:06:34;;;;;;;15.45;12.05;;;;;;;;;;5016727;28;20108;-60
2023/07/02 01:09:04;;;;;;;13.25;11.27;;;;;;;;;;5016648;28;20026;-60
2023/07/02 01:11:30;;;;;;;12.18;10.93;;;;;;;;;;4998989;28;20136;-60
2023/07/02 01:13:59;;;;;;;13.82;10.75;;;;;;;;;;5016445;28;20079;-60
2023/07/02 01:16:24;;;;;;;11.95;10.40;;;;;;;;;;5016298;28;20450;-61
2023/07/02 01:18:54;;;;;;;13.65;10.93;;;;;;;;;;5016368;28;20034;-60
2023/07/02 01:21:21;;;;;;;13.68;11.07;;;;;;;;;;5016402;28;20100;-60
2023/07/02 01:23:47;;;;;;;13.98;10.45;;;;;;;;;;5016214;28;20030;-60
2023/07/02 01:26:12;;;;;;;12.70;10.40;;;;;;;;;;4998642;28;20116;-60
2023/07/02 01:28:38;;;;;;;15.02;10.88;;;;;;;;;;5016366;28;20164;-60
2023/07/02 01:31:04;;;;;;;12.73;10.77;;;;;;;;;;4998590;28;20026;-60
2023/07/02 01:33:29;;;;;;;14.68;11.15;;;;;;;;;;5016111;28;20044;-60
2023/07/02 01:35:54;;;;;;;12.35;11.05;;;;;;;;;;5016009;28;20022;-60
2023/07/02 01:38:21;;;;;;;17.73;11.15;;;;;;;;;;5015433;28;20029;-60
2023/07/02 01:40:46;;;;;;;14.18;11.32;;;;;;;;;;5015654;28;20037;-60
2023/07/02 01:43:11;;;;;;;13.85;11.30;;;;;;;;;;4998365;28;20444;-60
2023/07/02 01:45:37;;;;;;;15.25;12.05;;;;;;;;;;5016074;28;20034;-60
2023/07/02 01:48:03;;;;;;;15.88;10.60;;;;;;;;;;4998158;28;20029;-60
2023/07/02 01:50:29;;;;;;;12.40;10.50;;;;;;;;;;5016017;28;20022;-60
2023/07/02 01:52:54;;;;;;;12.20;10.45;;;;;;;;;;5015831;28;20490;-60
2023/07/02 01:55:20;;;;;;;13.70;10.15;;;;;;;;;;5015552;28;20068;-60
2023/07/02 01:57:45;;;;;;;13.05;11.25;;;;;;;;;;4998093;28;20037;-60
2023/07/02 02:00:11;;;;;;;12.27;10.23;;;;;;;;;;5015601;28;20167;-60
2023/07/02 02:02:43;;;;;;;14.57;11.15;;;;;;;;;;5015974;28;20045;-60
2023/07/02 02:05:09;;;;;;;16.85;10.93;;;;;;;;;;5015409;28;20022;-60
2023/07/02 02:07:35;;;;;;;11.27;10.07;;;;;;;;;;4997892;28;20045;-60
2023/07/02 02:10:01;;;;;;;12.98;10.43;;;;;;;;;;5015403;28;20068;-60
2023/07/02 02:12:28;;;;;;;13.82;9.75;;;;;;;;;;4997701;28;20127;-60
2023/07/02 02:14:54;;;;;;;15.40;10.02;;;;;;;;;;4997714;28;20068;-60
2023/07/02 02:17:19;;;;;;;12.48;10.52;;;;;;;;;;4997722;28;20022;-60
2023/07/02 02:19:44;;;;;;;15.38;11.20;;;;;;;;;;4997650;28;20038;-60
2023/07/02 02:22:09;;;;;;;12.95;10.63;;;;;;;;;;5015256;28;20030;-60
2023/07/02 02:24:35;;;;;;;11.30;10.10;;;;;;;;;;5015128;28;20076;-60
2023/07/02 02:27:00;;;;;;;13.45;10.43;;;;;;;;;;5015079;28;20113;-60
2023/07/02 02:29:26;;;;;;;13.68;10.15;;;;;;;;;;5015253;28;20036;-60
2023/07/02 02:31:52;;;;;;;13.80;10.43;;;;;;;;;;4997964;28;20354;-60
2023/07/02 02:34:18;;;;;;;14.05;10.85;;;;;;;;;;4981284;28;20033;-61
2023/07/02 02:36:43;;;;;;;11.55;10.30;;;;;;;;;;5015067;28;20037;-60
2023/07/02 02:39:10;;;;;;;13.57;10.05;;;;;;;;;;4997257;28;20030;-60
2023/07/02 02:41:35;;;;;;;13.43;10.43;;;;;;;;;;4997282;28;20036;-60
2023/07/02 02:44:00;;;;;;;12.85;10.93;;;;;;;;;;5014735;28;20100;-60
2023/07/02 02:46:26;;;;;;;12.55;10.65;;;;;;;;;;4997023;28;20098;-60
2023/07/02 02:48:52;;;;;;;16.95;11.27;;;;;;;;;;4997087;28;20026;-60
2023/07/02 02:51:17;;;;;;;10.90;9.73;;;;;;;;;;4996915;28;20029;-60
2023/07/02 02:53:43;;;;;;;11.82;10.63;;;;;;;;;;5014620;28;20034;-60
2023/07/02 02:56:08;;;;;;;12.18;10.50;;;;;;;;;;5014437;28;20133;-63
2023/07/02 02:58:33;;;;;;;11.27;9.63;;;;;;;;;;5014508;28;20084;-63
2023/07/02 03:00:59;;;;;;;13.95;10.30;;;;;;;;;;4996943;28;20072;-63
2023/07/02 03:03:25;;;;;;;13.40;11.00;;;;;;;;;;4996514;28;20026;-61
2023/07/02 03:05:51;;;;;;;15.35;10.50;;;;;;;;;;5097705;22;20060;-60
2023/07/02 03:08:16;;;;;;;14.10;10.23;;;;;;;;;;5094273;28;20020;-60
2023/07/02 03:10:41;;;;;;;13.52;10.15;;;;;;;;;;5094229;28;20039;-60
2023/07/02 03:13:07;;;;;;;15.55;10.48;;;;;;;;;;5101062;22;21545;-60
2023/07/02 03:15:32;;;;;;;10.88;9.43;;;;;;;;;;5108109;22;20113;-62
2023/07/02 03:17:57;;;;;;;13.45;9.70;;;;;;;;;;5094136;28;20425;-60
2023/07/02 03:20:23;;;;;;;13.73;10.10;;;;;;;;;;5076082;28;20037;-60
2023/07/02 03:22:48;;;;;;;14.10;10.30;;;;;;;;;;5075841;28;20068;-60
2023/07/02 03:25:14;;;;;;;11.70;9.40;;;;;;;;;;5094362;28;20020;-60
2023/07/02 03:27:39;;;;;;;13.38;10.68;;;;;;;;;;5094336;28;20042;-60
2023/07/02 03:30:05;;;;;;;11.55;9.98;;;;;;;;;;5093984;28;20016;-60
2023/07/02 03:32:30;;;;;;;12.32;10.10;;;;;;;;;;5059565;28;20391;-60
2023/07/02 03:34:55;;;;;;;12.85;10.27;;;;;;;;;;5093920;28;20043;-60
2023/07/02 03:37:22;;;;;;;12.40;10.13;;;;;;;;;;5094421;28;20035;-61
2023/07/02 03:39:47;;;;;;;14.32;10.32;;;;;;;;;;5094439;28;20081;-60
2023/07/02 03:42:12;;;;;;;11.82;10.38;;;;;;;;;;5075723;28;20410;-60
2023/07/02 03:44:37;;;;;;;14.00;10.40;;;;;;;;;;5093775;28;20028;-60
2023/07/02 03:47:03;;;;;;;14.68;11.75;;;;;;;;;;5076058;28;20340;-60
2023/07/02 03:49:29;;;;;;;13.80;11.40;;;;;;;;;;5075658;28;20406;-60
2023/07/02 03:51:54;;;;;;;14.40;10.90;;;;;;;;;;5075958;28;20081;-60
2023/07/02 03:54:19;;;;;;;13.55;11.55;;;;;;;;;;5093692;28;20036;-60
2023/07/02 03:56:45;;;;;;;12.88;10.30;;;;;;;;;;5093675;28;20024;-60
2023/07/02 03:59:10;;;;;;;14.95;10.73;;;;;;;;;;5094198;28;20063;-61
2023/07/02 04:01:36;;;;;;;13.52;10.75;;;;;;;;;;5093665;28;20085;-61
2023/07/02 04:04:01;;;;;;;14.48;10.52;;;;;;;;;;5079914;28;20028;-60
2023/07/02 04:06:26;;;;;;;13.38;10.35;;;;;;;;;;5097805;28;20067;-61
2023/07/02 04:08:52;;;;;;;11.70;9.68;;;;;;;;;;5098000;28;20098;-60
2023/07/02 04:11:17;;;;;;;15.75;11.82;;;;;;;;;;5097937;28;20047;-60
2023/07/02 04:13:43;;;;;;;14.85;10.93;;;;;;;;;;5097667;28;20438;-60
2023/07/02 04:16:08;;;;;;;13.68;10.43;;;;;;;;;;5097800;28;20118;-60
2023/07/02 04:18:33;;;;;;;15.38;10.95;;;;;;;;;;5097421;28;20038;-60
2023/07/02 04:20:59;;;;;;;13.63;10.82;;;;;;;;;;5097495;28;20028;-60
2023/07/02 04:23:25;;;;;;;17.13;11.80;;;;;;;;;;5097696;28;20028;-60
2023/07/02 04:25:50;;;;;;;14.10;11.95;;;;;;;;;;5097698;28;20024;-60
2023/07/02 04:28:16;;;;;;;14.35;11.07;;;;;;;;;;5097669;28;20043;-60
2023/07/02 04:30:42;;;;;;;16.65;11.70;;;;;;;;;;5097595;28;20028;-60
2023/07/02 04:33:07;;;;;;;14.93;12.70;;;;;;;;;;5097563;28;20121;-60
2023/07/02 04:35:34;;;;;;;15.60;12.25;;;;;;;;;;5097780;28;20016;-60
2023/07/02 04:38:00;;;;;;;15.35;12.48;;;;;;;;;;5097166;28;20115;-60
2023/07/02 04:40:25;;;;;;;15.27;11.88;;;;;;;;;;5079007;28;20082;-60
2023/07/02 04:42:57;;;;;;;14.48;12.60;;;;;;;;;;5097297;28;20052;-60
2023/07/02 04:45:23;;;;;;;14.98;12.15;;;;;;;;;;5079012;28;20112;-60
2023/07/02 04:47:48;;;;;;;15.13;11.55;;;;;;;;;;5078912;28;20036;-60
2023/07/02 04:50:14;;;;;;;12.25;10.00;;;;;;;;;;5097260;28;20027;-60
2023/07/02 04:52:40;;;;;;;14.13;11.40;;;;;;;;;;5096861;28;20395;-60
2023/07/02 04:55:06;;;;;;;15.25;12.05;;;;;;;;;;5079390;28;20032;-60
2023/07/02 04:57:31;;;;;;;15.05;11.38;;;;;;;;;;5097135;28;20531;-60
2023/07/02 04:59:57;;;;;;;12.30;9.32;;;;;;;;;;5096798;28;20445;-60
2023/07/02 05:02:22;;;;;;;12.52;10.73;;;;;;;;;;5096674;28;20402;-60
2023/07/02 05:04:48;;;;;;;12.98;10.15;;;;;;;;;;5096976;28;20530;-60
2023/07/02 05:07:13;;;;;;;12.43;10.43;;;;;;;;;;5096953;28;20016;-60
2023/07/02 05:09:38;;;;;;;15.70;10.40;;;;;;;;;;5096619;28;20486;-60
2023/07/02 05:12:03;;;;;;;10.65;9.32;;;;;;;;;;5096825;28;20058;-60
2023/07/02 05:14:29;;;;;;;12.15;9.27;;;;;;;;;;5078421;28;20028;-60
2023/07/02 05:16:54;;;;;;;11.85;9.68;;;;;;;;;;5096236;28;20045;-60
2023/07/02 05:19:19;;;;;;;10.73;9.30;;;;;;;;;;5103481;22;20052;-60
2023/07/02 05:21:45;;;;;;;14.43;10.90;;;;;;;;;;5078226;28;20123;-60
2023/07/02 05:24:12;;;;;;;13.45;10.65;;;;;;;;;;5103851;22;20045;-61
2023/07/02 05:26:37;;;;;;;14.00;10.13;;;;;;;;;;5103402;22;20049;-61
2023/07/02 05:29:03;;;;;;;14.15;10.73;;;;;;;;;;5096235;28;20467;-60
2023/07/02 05:31:28;;;;;;;14.43;10.18;;;;;;;;;;5096198;28;20422;-60
2023/07/02 05:33:54;;;;;;;11.27;10.05;;;;;;;;;;5078014;28;20516;-60
2023/07/02 05:36:19;;;;;;;10.25;8.77;;;;;;;;;;5130867;22;20395;-64
2023/07/02 05:38:44;;;;;;;11.15;9.75;;;;;;;;;;5041885;23;20141;-62
2023/07/02 05:41:10;;;;;;;13.77;9.43;;;;;;;;;;4997416;28;20093;-62
2023/07/02 05:43:35;;;;;;;13.50;9.63;;;;;;;;;;5015154;28;20034;-62
2023/07/02 05:46:01;;;;;;;11.35;9.77;;;;;;;;;;5014918;28;20021;-62
2023/07/02 05:48:27;;;;;;;11.95;8.82;;;;;;;;;;5013628;28;20036;-62
2023/07/02 05:50:53;;;;;;;8.93;8.02;;;;;;;;;;5013687;28;20558;-63
2023/07/02 05:53:18;;;;;;;7.85;6.88;;;;;;;;;;5014810;28;20169;-60
2023/07/02 05:55:43;;;;;;;7.85;6.50;;;;;;;;;;5015339;28;20037;-62
2023/07/02 05:58:10;;;;;;;9.35;6.57;;;;;;;;;;5015031;28;20033;-60
2023/07/02 06:00:36;;;;;;;7.15;6.40;;;;;;;;;;5014736;28;20018;-62
2023/07/02 06:03:02;;;;;;;8.63;6.28;;;;;;;;;;5013684;28;20037;-60
2023/07/02 06:05:27;;;;;;;6.50;5.85;;;;;;;;;;5029822;28;20038;-60
2023/07/02 06:07:54;;;;;;;8.15;6.55;;;;;;;;;;5014857;28;20029;-60
2023/07/02 06:10:19;;;;;;;6.95;5.18;;;;;;;;;;5013314;28;20022;-60
2023/07/02 06:12:44;;;;;;;7.50;5.30;;;;;;;;;;5014822;28;20433;-60
2023/07/02 06:15:10;;;;;;;6.05;5.47;;;;;;;;;;5014516;28;20029;-60
2023/07/02 06:17:35;;;;;;;6.57;5.60;;;;;;;;;;5014420;28;20033;-60
2023/07/02 06:20:04;;;;;;;5.53;5.03;;;;;;;;;;5014456;28;20128;-60
2023/07/02 06:22:30;;;;;;;5.40;4.87;;;;;;;;;;5014287;28;20025;-60
2023/07/02 06:24:56;;;;;;;7.35;5.05;;;;;;;;;;5012495;28;20033;-60
2023/07/02 06:27:21;;;;;;;6.90;4.75;;;;;;;;;;5029505;28;20018;-59
2023/07/02 06:29:46;;;;;;;4.53;4.13;;;;;;;;;;5014533;28;20156;-60
2023/07/02 06:32:11;;;;;;;4.10;3.67;;;;;;;;;;5013364;28;20022;-60
2023/07/02 06:34:37;;;;;;;4.40;4.00;;;;;;;;;;5012981;28;20046;-60
2023/07/02 06:37:02;;;;;;;3.90;3.50;;;;;;;;;;5014430;28;20030;-60
2023/07/02 06:39:27;;;;;;;3.60;3.30;;;;;;;;;;5003164;28;1381898;-60
2023/07/02 06:41:53;;;;;;;4.05;3.72;;;;;;;;;;5036698;28;20029;-60
2023/07/02 06:44:25;;;;;;;3.53;2.88;;;;;;;;;;5036631;28;20455;-60
2023/07/02 06:46:51;;;;;;;5.80;3.50;;;;;;;;;;5020088;28;20025;-60
2023/07/02 06:49:16;;;;;;;3.78;3.17;;;;;;;;;;5054715;28;20087;-60
2023/07/02 06:51:41;;;;;;;4.53;2.80;;;;;;;;;;5054643;28;20021;-60
2023/07/02 06:54:07;;;;;;;5.25;2.55;;;;;;;;;;5054646;28;20029;-60
2023/07/02 06:56:33;;;;;;;2.70;2.50;;;;;;;;;;5054601;28;20056;-60
2023/07/02 06:58:59;;;;;;;1.98;1.88;;;;;;;;;;5054284;28;20033;-60
2023/07/02 07:01:24;;;;;;;2.08;1.98;;;;;;;;;;5054268;28;20182;-60
2023/07/02 07:03:50;;;;;;;2.40;2.05;;;;;;;;;;5036231;28;20019;-60
2023/07/02 07:06:17;;;;;;;2.20;2.00;;;;;;;;;;5054186;28;20516;-60
2023/07/02 07:08:42;;;;;;;2.92;1.92;;;;;;;;;;5054357;28;20385;-60
2023/07/02 07:11:08;;;;;;;3.65;1.85;;;;;;;;;;5054031;28;20029;-60
2023/07/02 07:13:34;;;;;;;2.40;1.95;;;;;;;;;;5053994;28;20033;-60
2023/07/02 07:15:59;;;;;;;3.33;2.08;;;;;;;;;;5054475;28;20025;-59
2023/07/02 07:18:24;;;;;;;2.30;1.85;;;;;;;;;;5053943;28;20112;-60
2023/07/02 07:20:52;;;;;;;1.90;1.80;;;;;;;;;;5054184;28;20056;-60
2023/07/02 07:23:18;;;;;;;2.08;1.95;;;;;;;;;;5054360;28;20105;-60
2023/07/02 07:25:44;;;;;;;2.13;1.90;;;;;;;;;;5053809;28;20472;-60
2023/07/02 07:28:15;;;;;;;3.15;1.92;;;;;;;;;;5053757;28;20024;-60
2023/07/02 07:30:40;;;;;;;3.10;2.42;;;;;;;;;;5054043;28;20362;-60
2023/07/02 07:33:05;;;;;;;2.83;2.20;;;;;;;;;;5053528;28;20124;-60
2023/07/02 07:35:30;;;;;;;2.40;2.15;;;;;;;;;;5035862;28;20044;-60
2023/07/02 07:37:57;;;;;;;2.10;2.00;;;;;;;;;;5052676;28;20405;-60
2023/07/02 07:40:22;;;;;;;3.45;2.13;;;;;;;;;;5053878;28;20033;-59
2023/07/02 07:42:48;;;;;;;1.85;1.75;;;;;;;;;;5053537;28;20025;-60
2023/07/02 07:45:13;;;;;;;2.40;2.15;;;;;;;;;;5053578;28;20045;-60
2023/07/02 07:47:39;;;;;;;2.30;2.10;;;;;;;;;;5053569;28;20033;-60
2023/07/02 07:50:09;;;;;;;2.40;2.10;;;;;;;;;;5053516;28;20178;-60
2023/07/02 07:52:36;;;;;;;3.80;2.15;;;;;;;;;;5036504;28;20113;-60
2023/07/02 07:55:01;;;;;;;2.00;1.90;;;;;;;;;;5035662;28;20017;-60
2023/07/02 07:57:26;;;;;;;3.28;2.22;;;;;;;;;;5068166;22;20124;-62
2023/07/02 08:00:25;;;;;;;2.47;1.98;;;;;;;;;;5115298;22;20141;-60
2023/07/02 08:02:52;;;;;;;3.13;1.90;;;;;;;;;;4992694;28;20494;-60
2023/07/02 08:05:17;;;;;;;1.98;1.88;;;;;;;;;;4976714;28;20478;-60
2023/07/02 08:07:43;;;;;;;2.05;1.95;;;;;;;;;;4994039;28;20041;-60
2023/07/02 08:10:08;;;;;;;2.08;1.85;;;;;;;;;;4976650;28;20117;-60
2023/07/02 08:12:34;;;;;;;2.85;2.20;;;;;;;;;;4977147;28;20133;-60
2023/07/02 08:14:59;;;;;;;3.03;1.95;;;;;;;;;;4976852;28;20030;-60
2023/07/02 08:17:25;;;;;;;3.83;2.15;;;;;;;;;;4993950;28;20038;-60
2023/07/02 08:19:50;;;;;;;2.17;2.08;;;;;;;;;;4993871;28;20042;-60
2023/07/02 08:22:15;;;;;;;3.42;2.63;;;;;;;;;;4994431;28;20084;-60
2023/07/02 08:24:41;;;;;;;2.45;2.03;;;;;;;;;;4994213;28;20022;-60
2023/07/02 08:27:06;;;;;;;2.15;2.05;;;;;;;;;;4993945;28;20379;-60
2023/07/02 08:29:32;;;;;;;2.58;2.10;;;;;;;;;;4976546;28;20390;-60
2023/07/02 08:31:57;;;;;;;2.75;2.00;;;;;;;;;;4994162;28;20092;-61
2023/07/02 08:34:22;;;;;;;2.17;2.00;;;;;;;;;;4994123;28;20459;-60
2023/07/02 08:36:48;;;;;;;2.80;1.95;;;;;;;;;;4994415;28;20042;-60
2023/07/02 08:39:14;;;;;;;2.30;1.55;;;;;;;;;;4993818;28;20033;-61
2023/07/02 08:41:46;;;;;;;1.85;1.75;;;;;;;;;;4994098;28;20019;-60
2023/07/02 08:44:13;;;;;;;1.70;1.60;;;;;;;;;;4993989;28;20034;-60
2023/07/02 08:46:39;;;;;;;5.30;1.60;;;;;;;;;;4993782;28;20021;-60
2023/07/02 08:49:04;;;;;;;1.63;1.52;;;;;;;;;;4995934;28;20081;-60
2023/07/02 08:51:30;;;;;;;1.70;1.60;;;;;;;;;;4997433;28;20034;-60
2023/07/02 08:53:55;;;;;;;2.38;2.03;;;;;;;;;;4997911;28;20034;-60
2023/07/02 08:56:20;;;;;;;1.95;1.85;;;;;;;;;;4997337;28;20026;-60
2023/07/02 08:58:46;;;;;;;2.15;1.67;;;;;;;;;;4997264;28;20088;-60
2023/07/02 09:01:12;;;;;;;1.60;1.50;;;;;;;;;;4997241;28;20038;-60
2023/07/02 09:03:39;;;;;;;1.92;1.83;;;;;;;;;;4997402;28;20038;-60
2023/07/02 09:06:04;;;;;;;2.05;1.83;;;;;;;;;;4997132;28;20382;-60
2023/07/02 09:08:30;;;;;;;2.60;1.88;;;;;;;;;;4979665;28;20097;-61
2023/07/02 09:11:08;;;;;;;2.45;1.70;;;;;;;;;;4997322;28;20034;-60
2023/07/02 09:13:47;;;;;;;2.15;1.55;;;;;;;;;;4997272;28;20026;-60
2023/07/02 09:16:21;;;;;;;1.80;1.70;;;;;;;;;;4997245;28;20105;-60
2023/07/02 09:19:00;;;;;;;2.03;1.70;;;;;;;;;;4979532;28;20451;-60
2023/07/02 09:21:26;;;;;;;1.80;1.70;;;;;;;;;;4996861;28;20470;-60
2023/07/02 09:23:51;;;;;;;2.10;1.88;;;;;;;;;;4996719;28;20080;-60
2023/07/02 09:26:20;;;;;;;1.83;1.63;;;;;;;;;;4997306;28;20054;-60
2023/07/02 09:28:45;;;;;;;1.70;1.60;;;;;;;;;;4996991;28;20029;-60
2023/07/02 09:31:11;;;;;;;1.67;1.58;;;;;;;;;;4979644;28;20109;-61
2023/07/02 09:33:36;;;;;;;1.77;1.65;;;;;;;;;;4996642;28;20042;-60
2023/07/02 09:36:02;;;;;;;1.63;1.52;;;;;;;;;;4963275;28;20042;-60
2023/07/02 09:38:27;;;;;;;1.98;1.80;;;;;;;;;;4997106;28;20030;-60
2023/07/02 09:40:55;;;;;;;2.70;1.88;;;;;;;;;;4997038;28;20026;-60
2023/07/02 09:43:21;;;;;;;1.65;1.55;;;;;;;;;;4996439;28;20030;-60
2023/07/02 09:45:46;;;;;;;1.83;1.73;;;;;;;;;;4996685;28;20039;-60
2023/07/02 09:48:13;;;;;;;1.92;1.83;;;;;;;;;;4996367;28;20030;-60
2023/07/02 09:50:39;;;;;;;1.95;1.85;;;;;;;;;;4978945;28;20470;-60
2023/07/02 09:53:05;;;;;;;1.85;1.75;;;;;;;;;;4996246;28;20038;-61
2023/07/02 09:55:30;;;;;;;1.90;1.80;;;;;;;;;;4996239;28;20041;-60
2023/07/02 09:57:55;;;;;;;1.85;1.75;;;;;;;;;;4996456;28;20065;-60
2023/07/02 10:00:21;;;;;;;2.60;2.22;;;;;;;;;;4977875;28;20036;-60
2023/07/02 10:02:48;;;;;;;2.85;1.98;;;;;;;;;;4995655;28;20069;-60
2023/07/02 10:05:24;;;;;;;2.25;1.98;;;;;;;;;;4996062;28;20474;-60
2023/07/02 10:07:50;;;;;;;2.53;2.30;;;;;;;;;;5045061;23;20040;-62
2023/07/02 10:10:25;;;;;;;1.95;1.85;;;;;;;;;;5095462;28;20027;-60
2023/07/02 10:12:50;;;;;;;3.67;2.60;;;;;;;;;;5095644;28;20042;-60
2023/07/02 10:15:23;;;;;;;2.35;2.10;;;;;;;;;;5077253;28;20126;-60
2023/07/02 10:20:55;;;;;;;2.50;2.30;;;;;;;;;;5093679;22;20087;-62
2023/07/02 10:23:31;;;;;;;4.15;2.30;;;;;;;;;;5013709;28;20050;-63
2023/07/02 10:25:57;;;;;;;2.25;2.10;;;;;;;;;;5015224;28;20022;-63
2023/07/02 10:28:26;;;;;;;5.38;2.65;;;;;;;;;;4997565;28;20389;-63
2023/07/02 10:30:53;;;;;;;3.60;2.83;;;;;;;;;;5015118;28;20108;-63
2023/07/02 10:33:18;;;;;;;3.75;3.45;;;;;;;;;;5015644;28;20108;-63
2023/07/02 10:35:46;;;;;;;3.92;3.22;;;;;;;;;;5015356;28;20492;-63
2023/07/02 10:38:19;;;;;;;3.33;3.13;;;;;;;;;;4997490;28;20025;-63
2023/07/02 10:40:45;;;;;;;4.05;3.40;;;;;;;;;;5015274;28;20065;-63
2023/07/02 10:43:10;;;;;;;5.00;2.55;;;;;;;;;;4981903;28;20111;-63
2023/07/02 10:45:36;;;;;;;3.05;2.88;;;;;;;;;;5015138;28;20025;-63
2023/07/02 10:48:08;;;;;;;3.70;3.40;;;;;;;;;;4997268;28;20026;-63
2023/07/02 10:50:34;;;;;;;3.60;3.10;;;;;;;;;;5015083;28;20058;-63
2023/07/02 10:52:59;;;;;;;3.72;3.42;;;;;;;;;;5014747;28;20026;-63
2023/07/02 10:55:25;;;;;;;4.20;3.33;;;;;;;;;;5015276;28;20044;-63
2023/07/02 10:58:02;;;;;;;4.35;3.88;;;;;;;;;;4997142;28;20489;-63
2023/07/02 11:00:27;;;;;;;3.58;3.28;;;;;;;;;;5014647;28;20490;-60
2023/07/02 11:02:52;;;;;;;4.18;3.78;;;;;;;;;;5072245;22;20080;-60
2023/07/02 11:05:18;;;;;;;4.15;3.75;;;;;;;;;;5084875;22;20064;-60
2023/07/02 11:07:43;;;;;;;5.32;3.38;;;;;;;;;;5074416;28;20380;-60
2023/07/02 11:10:09;;;;;;;4.72;4.32;;;;;;;;;;5074302;28;20021;-60
2023/07/02 11:12:36;;;;;;;4.13;3.75;;;;;;;;;;5074462;28;20036;-60
2023/07/02 11:15:12;;;;;;;4.60;3.63;;;;;;;;;;5074281;28;20044;-60
2023/07/02 11:17:39;;;;;;;3.38;2.97;;;;;;;;;;5056458;28;20033;-60
2023/07/02 11:20:05;;;;;;;4.38;2.67;;;;;;;;;;5055941;28;20020;-60
2023/07/02 11:22:31;;;;;;;3.30;3.00;;;;;;;;;;5074087;28;20024;-60
2023/07/02 11:24:56;;;;;;;3.20;3.00;;;;;;;;;;5074101;28;20032;-60
2023/07/02 11:27:22;;;;;;;3.95;3.55;;;;;;;;;;5073844;28;20174;-60
2023/07/02 11:29:47;;;;;;;4.13;2.90;;;;;;;;;;5073829;28;20040;-60
2023/07/02 11:32:13;;;;;;;2.20;2.10;;;;;;;;;;5074094;28;20036;-60
2023/07/02 11:34:40;;;;;;;3.20;3.00;;;;;;;;;;5073749;28;20041;-60
2023/07/02 11:37:05;;;;;;;2.80;2.58;;;;;;;;;;5073952;28;20119;-60
2023/07/02 11:39:31;;;;;;;3.03;2.83;;;;;;;;;;5073966;28;20068;-60
2023/07/02 11:41:56;;;;;;;2.72;2.42;;;;;;;;;;5073667;28;20029;-61
2023/07/02 11:44:22;;;;;;;2.88;2.25;;;;;;;;;;5073850;28;20025;-60
2023/07/02 11:46:47;;;;;;;2.50;2.30;;;;;;;;;;5055673;28;20498;-60
2023/07/02 11:49:12;;;;;;;2.65;2.45;;;;;;;;;;5073618;28;20021;-60
2023/07/02 11:51:38;;;;;;;1.90;1.80;;;;;;;;;;5073584;28;20452;-60
2023/07/02 11:54:04;;;;;;;2.03;1.92;;;;;;;;;;5073518;28;20037;-60
2023/07/02 11:56:29;;;;;;;2.38;1.88;;;;;;;;;;5073797;28;20039;-60
2023/07/02 11:58:55;;;;;;;2.30;2.10;;;;;;;;;;5073471;28;20490;-60
2023/07/02 12:01:20;;;;;;;3.35;2.50;;;;;;;;;;5073731;28;20024;-60
2023/07/02 12:03:45;;;;;;;2.50;2.38;;;;;;;;;;5073340;28;20056;-61
2023/07/02 12:06:11;;;;;;;3.83;3.38;;;;;;;;;;5093169;28;20480;-60
2023/07/02 12:08:36;;;;;;;3.05;2.60;;;;;;;;;;5093865;28;20103;-60
2023/07/02 12:11:01;;;;;;;3.63;3.17;;;;;;;;;;5093573;28;20099;-60
2023/07/02 12:13:26;;;;;;;2.55;2.35;;;;;;;;;;5093806;28;20043;-60
2023/07/02 12:15:52;;;;;;;3.00;2.60;;;;;;;;;;5093770;28;20036;-60
2023/07/02 12:18:17;;;;;;;3.45;1.77;;;;;;;;;;5094298;28;20036;-60
2023/07/02 12:20:43;;;;;;;2.20;2.00;;;;;;;;;;5075772;28;20090;-60
2023/07/02 12:23:09;;;;;;;2.00;1.90;;;;;;;;;;5094178;28;20031;-60
2023/07/02 12:25:37;;;;;;;2.40;2.20;;;;;;;;;;5097475;28;20032;-60
2023/07/02 12:28:03;;;;;;;2.92;2.00;;;;;;;;;;5106419;23;20488;-61
2023/07/02 12:30:29;;;;;;;1.95;1.85;;;;;;;;;;5122050;22;20051;-60
2023/07/02 12:32:54;;;;;;;2.10;1.77;;;;;;;;;;5117765;28;20478;-60
2023/07/02 12:35:20;;;;;;;1.90;1.80;;;;;;;;;;5117776;28;20367;-60
2023/07/02 12:37:46;;;;;;;2.15;1.90;;;;;;;;;;5099357;28;20091;-61
2023/07/02 12:43:30;;;;;;;2.30;2.20;;;;;;;;;;5035712;28;20042;-63
2023/07/02 12:45:55;;;;;;;2.45;2.10;;;;;;;;;;5036937;28;20535;-63
2023/07/02 12:48:21;;;;;;;2.28;2.17;;;;;;;;;;5037179;28;20029;-63
2023/07/02 12:50:53;;;;;;;2.05;1.88;;;;;;;;;;5037093;28;20024;-63
2023/07/02 12:53:18;;;;;;;3.55;1.70;;;;;;;;;;5037119;28;20107;-63
2023/07/02 12:55:44;;;;;;;5.85;1.48;;;;;;;;;;5035491;28;20088;-63
2023/07/02 12:58:09;;;;;;;4.20;1.33;;;;;;;;;;5037011;28;20029;-63
2023/07/02 13:00:35;;;;;;;2.67;1.08;;;;;;;;;;5036624;28;20416;-63
2023/07/02 13:03:00;;;;;;;3.05;1.02;;;;;;;;;;5036837;28;20052;-63
2023/07/02 13:05:25;;;;;;;1.05;0.90;;;;;;;;;;5036546;28;20385;-63
2023/07/02 13:07:51;;;;;;;2.42;0.93;;;;;;;;;;5036526;28;20076;-63
2023/07/02 13:10:16;;;;;;;0.75;0.50;;;;;;;;;;5036800;28;20083;-63
2023/07/02 13:12:41;;;;;;;3.10;0.70;;;;;;;;;;5036446;28;20033;-63
2023/07/02 13:15:07;;;;;;;2.28;0.60;;;;;;;;;;5036376;28;20017;-63
2023/07/02 13:17:32;;;;;;;1.85;0.63;;;;;;;;;;5035480;28;20036;-63
2023/07/02 13:19:57;;;;;;;1.20;0.43;;;;;;;;;;5036844;28;20037;-63
2023/07/02 13:22:23;;;;;;;2.25;0.60;;;;;;;;;;5036794;28;20104;-63
2023/07/02 13:24:48;;;;;;;0.98;0.70;;;;;;;;;;5036220;28;20424;-63
2023/07/02 13:27:15;;;;;;;0.68;0.60;;;;;;;;;;5035302;28;20025;-63
2023/07/02 13:29:40;;;;;;;0.68;0.60;;;;;;;;;;5036686;28;20518;-63
2023/07/02 13:32:06;;;;;;;1.55;0.73;;;;;;;;;;5035984;28;20052;-63
2023/07/02 13:34:31;;;;;;;0.75;0.75;;;;;;;;;;5033717;28;20393;-63
2023/07/02 13:36:57;;;;;;;1.23;0.60;;;;;;;;;;5035812;28;20484;-63
2023/07/02 13:39:22;;;;;;;0.70;0.65;;;;;;;;;;5035976;28;20065;-63
2023/07/02 13:41:47;;;;;;;0.90;0.75;;;;;;;;;;5035927;28;20503;-63
2023/07/02 13:44:14;;;;;;;2.28;0.70;;;;;;;;;;5036075;28;20048;-63
2023/07/02 13:46:40;;;;;;;1.33;0.70;;;;;;;;;;5034555;28;20049;-63
2023/07/02 13:49:05;;;;;;;0.70;0.60;;;;;;;;;;5036038;28;20072;-63
2023/07/02 13:51:30;;;;;;;0.88;0.60;;;;;;;;;;5034860;28;20037;-63
2023/07/02 13:53:55;;;;;;;0.90;0.90;;;;;;;;;;5036229;28;20033;-63
2023/07/02 13:56:21;;;;;;;1.88;0.90;;;;;;;;;;5035626;28;20422;-63
2023/07/02 13:58:55;;;;;;;1.08;0.80;;;;;;;;;;5035569;28;20084;-63
2023/07/02 14:01:20;;;;;;;2.15;0.80;;;;;;;;;;5035788;28;20034;-63
2023/07/02 14:03:46;;;;;;;0.60;0.60;;;;;;;;;;5035706;28;20087;-63
2023/07/02 14:06:11;;;;;;;1.95;0.90;;;;;;;;;;5035477;28;20486;-63
2023/07/02 14:08:36;;;;;;;1.13;0.88;;;;;;;;;;5035386;28;20100;-63
2023/07/02 14:11:01;;;;;;;1.27;0.80;;;;;;;;;;5035331;28;20033;-63
2023/07/02 14:13:27;;;;;;;2.42;1.27;;;;;;;;;;5035253;28;20029;-63
2023/07/02 14:15:52;;;;;;;1.35;1.00;;;;;;;;;;5034015;28;20043;-63
2023/07/02 14:18:17;;;;;;;2.25;1.00;;;;;;;;;;5035512;28;20123;-63
2023/07/02 14:20:44;;;;;;;1.20;1.10;;;;;;;;;;5035428;28;20032;-63
2023/07/02 14:23:09;;;;;;;1.50;1.10;;;;;;;;;;5034462;28;20034;-63
2023/07/02 14:25:34;;;;;;;3.22;1.00;;;;;;;;;;5034212;28;20113;-63
2023/07/02 14:28:00;;;;;;;2.30;1.08;;;;;;;;;;5033913;28;20029;-63
2023/07/02 14:30:25;;;;;;;1.08;0.90;;;;;;;;;;5035529;28;20036;-63
2023/07/02 14:32:50;;;;;;;2.95;1.00;;;;;;;;;;5035522;28;20030;-63
2023/07/02 14:35:15;;;;;;;1.15;0.90;;;;;;;;;;5034936;28;20033;-63